Meteo Giornale » Osservazioni meteo India » Gaya
ore: 02:30 - Osservazioni Meteo Gaya
Lat. 24° 45' N Lon. 84° 57' E Alt. 110 metri s.l.m.
26 °C
Foschia
Temp. 24 Ore
26 °C
31 °C
Nord
0 Km/h
Dew point 26 °C
Umidità 100 %
Visibilità 3 Km
Il sole sorge alle ore 05:31
Il sole tramonta alle ore 18:09
| Data e Ora | Cielo e Fenomeni | T °C | DP °C | Um. % | Pres. hPa | Vis. km | Vento km/h | |
|---|---|---|---|---|---|---|---|---|
| Oggi h: 02:30 | Foschia | 26 | 26 | 100 | 1001 | 3 | N 0 | |
| Oggi h: 01:30 | Temporale | 26 | 26 | 100 | 1002 | 2 | N 0 | |
| Oggi h: 00:30 | Pioggia | 26 | 26 | 100 | 1002 | 2 | N 0 | |
| Ieri h: 23:30 | Pioggia | 26 | 26 | 100 | 1003 | 3 | N 0 | |
| Ieri h: 22:30 | Foschia | 26 | 26 | 100 | 1002 | 3 | N 0 | |
| Ieri h: 21:30 | Temporale | 26 | 26 | 100 | 1003 | 3 | E/NE 7.4 | |
| Ieri h: 20:30 | Foschia | 27 | 27 | 100 | 1002 | 3 | N 0 | |
| Ieri h: 19:30 | Foschia | 27 | 27 | 100 | 1002 | 3 | N 0 | |
| Ieri h: 18:30 | Foschia | 27 | 27 | 100 | 1001 | 3 | N 0 | |
| Ieri h: 17:30 | Foschia | 27 | 27 | 100 | 1000 | 3 | N 0 | |
| Ieri h: 16:30 | Foschia | 27 | 27 | 100 | 1000 | 3 | N 0 | |
| Ieri h: 16:00 | Foschia | 27 | 26 | 94 | 1000 | 3 | E 7.4 | |
| Ieri h: 15:30 | Foschia | 27 | 26 | 94 | 999 | 2 | E/NE 9.3 | |
| Ieri h: 15:00 | Temporale | 27 | 26 | 94 | 1000 | 2 | N 5.5 | |
| Ieri h: 14:30 | Temporale | 26 | 26 | 100 | 1000 | 0.7 | N 5.5 | |
| Ieri h: 14:00 | Temporale | 26 | 26 | 100 | 1001 | 0.7 | E 7.4 | |
| Ieri h: 13:30 | Temporale | 27 | 26 | 94 | 1001 | 1 | NE 13 | |
| Ieri h: 13:00 | Temporale | 27 | 26 | 94 | 1001 | 0.7 | N/NE 7.4 | |
| Ieri h: 12:30 | Foschia | 30 | 27 | 84 | 1001 | 4 | NO 14.8 | |
| Ieri h: 12:00 | Foschia | 31 | 27 | 79 | 1001 | 4 | NO 11.1 | |
| Ieri h: 11:30 | Foschia | 30 | 27 | 84 | 1002 | 4 | O/NO 13 | |
| Ieri h: 11:00 | Foschia | 31 | 28 | 84 | 1002 | 4 | NO 13 | |
| Ieri h: 10:30 | Temporale | 29 | 27 | 89 | 1002 | 3 | NO 7.4 | |
| Ieri h: 10:00 | Pioggia | 28 | 27 | 94 | 1003 | 2 | O/NO 13 | |
| Ieri h: 09:30 | Foschia | 29 | 27 | 89 | 1003 | 3 | O/NO 13 | |
| Ieri h: 08:30 | Pioggia | 27 | 26 | 94 | 1002 | 3 | NO 7.4 | |
| Ieri h: 07:30 | Foschia | 27 | 26 | 94 | 1002 | 3 | NO 11.1 | |
| Ieri h: 06:30 | Foschia | 26 | 26 | 100 | 1002 | 3 | N 0 | |
| Ieri h: 05:30 | Foschia | 27 | 26 | 94 | 1002 | 3 | N 0 | |
| Ieri h: 04:30 | Foschia | 26 | 26 | 100 | 1001 | 3 | N 0 | |



